Time;durP1;ratioP1;P1;durP2;ratioP2;P2;SDS_P1;SDS_P2;PMS_P1;PMS_P2;Temp;Humidity;BMP_temperature;BMP_pressure;BME280_temperature;BME280_humidity;BME280_pressure;Samples;Min_cycle;Max_cycle;Signal;HPM_P1;HPM_P2
2021/01/20 00:00:16;;;;;;;1.20;0.80;;;;;;;0.07;78.63;95024.53;4993142;28;20187;-75
2021/01/20 00:02:41;;;;;;;1.27;1.00;;;;;;;-0.04;78.70;95020.13;4993179;28;20180;-76
2021/01/20 00:05:08;;;;;;;0.70;0.70;;;;;;;-0.04;79.30;95016.75;4959018;28;20675;-76
2021/01/20 00:07:33;;;;;;;0.90;0.90;;;;;;;-0.11;79.42;95013.75;4975341;28;20187;-76
2021/01/20 00:09:58;;;;;;;2.50;0.80;;;;;;;0.03;79.00;95012.09;4992946;28;20547;-76
2021/01/20 00:12:24;;;;;;;0.60;0.60;;;;;;;-0.06;79.02;95010.94;4989729;28;20650;-75
2021/01/20 00:14:49;;;;;;;0.80;0.80;;;;;;;-0.14;79.53;95006.31;4994516;28;20215;-77
2021/01/20 00:17:15;;;;;;;0.97;0.90;;;;;;;-0.05;79.08;95000.63;5012548;28;20269;-75
2021/01/20 00:19:41;;;;;;;2.17;1.00;;;;;;;-0.06;78.57;94991.31;4994974;28;20180;-76
2021/01/20 00:22:06;;;;;;;0.87;0.73;;;;;;;-0.11;79.00;94987.41;5012261;28;20189;-76
2021/01/20 00:24:32;;;;;;;1.00;0.93;;;;;;;-0.07;78.90;94991.44;4994594;28;20236;-75
2021/01/20 00:26:57;;;;;;;1.43;1.00;;;;;;;-0.07;78.90;94989.69;4994819;28;20269;-76
2021/01/20 00:29:22;;;;;;;1.40;1.00;;;;;;;-0.13;79.10;94982.41;5012327;28;20171;-77
2021/01/20 00:31:48;;;;;;;0.87;0.80;;;;;;;-0.06;79.29;94986.22;4994721;28;20209;-75
2021/01/20 00:34:13;;;;;;;1.43;0.93;;;;;;;-0.02;79.19;94984.28;4994398;28;20218;-76
2021/01/20 00:36:38;;;;;;;1.37;0.87;;;;;;;-0.01;79.04;94980.81;4994475;28;20182;-75
2021/01/20 00:39:04;;;;;;;0.70;0.70;;;;;;;0.03;78.97;94984.81;4994895;28;20215;-76
2021/01/20 00:41:29;;;;;;;0.80;0.60;;;;;;;-0.01;79.01;94985.91;4977756;28;20785;-76
2021/01/20 00:43:54;;;;;;;2.47;1.10;;;;;;;0.01;78.88;94983.28;4994539;28;20190;-76
2021/01/20 00:46:20;;;;;;;0.80;0.80;;;;;;;-0.10;78.87;94982.22;5011534;28;20210;-75
2021/01/20 00:48:45;;;;;;;1.00;0.80;;;;;;;-0.12;79.10;94978.94;4993583;28;20195;-77
2021/01/20 00:51:13;;;;;;;1.20;0.90;;;;;;;-0.17;79.08;94975.06;4994085;28;20183;-76
2021/01/20 00:53:38;;;;;;;1.17;0.77;;;;;;;-0.20;79.39;94975.25;5012121;28;20209;-75
2021/01/20 00:56:05;;;;;;;0.80;0.70;;;;;;;-0.14;79.40;94978.22;5011548;28;20211;-75
2021/01/20 00:58:30;;;;;;;1.63;1.00;;;;;;;-0.11;79.15;94967.00;5011993;28;20171;-76
2021/01/20 01:00:55;;;;;;;0.80;0.80;;;;;;;-0.11;79.48;94967.00;5011997;28;20179;-76
2021/01/20 01:03:21;;;;;;;0.90;0.70;;;;;;;-0.12;79.33;94965.38;5011929;28;20600;-75
2021/01/20 01:05:46;;;;;;;0.63;0.63;;;;;;;-0.16;79.36;94966.50;4993718;28;20206;-76
2021/01/20 01:08:11;;;;;;;0.90;0.80;;;;;;;-0.14;79.30;94965.47;4994330;28;20177;-76
2021/01/20 01:10:37;;;;;;;1.03;0.80;;;;;;;-0.11;79.39;94970.38;5011904;28;20187;-76
2021/01/20 01:13:02;;;;;;;1.07;0.80;;;;;;;-0.21;79.02;94969.31;4994206;28;20211;-76
2021/01/20 01:15:28;;;;;;;1.33;0.80;;;;;;;-0.20;79.50;94958.19;5011182;28;20214;-75
2021/01/20 01:17:53;;;;;;;0.70;0.70;;;;;;;-0.21;79.67;94956.56;4978068;28;20241;-75
2021/01/20 01:20:19;;;;;;;0.73;0.70;;;;;;;-0.11;79.71;94957.59;4993879;28;20546;-76
2021/01/20 01:22:44;;;;;;;0.70;0.70;;;;;;;0.02;79.45;94949.19;4994061;28;20191;-77
2021/01/20 01:25:10;;;;;;;0.70;0.70;;;;;;;0.07;79.30;94937.75;4993931;28;20206;-75
2021/01/20 01:27:35;;;;;;;0.90;0.70;;;;;;;0.21;79.13;94941.97;4994192;28;20190;-76
2021/01/20 01:30:00;;;;;;;0.60;0.50;;;;;;;0.32;78.65;94944.63;4994125;28;20194;-76
2021/01/20 01:32:26;;;;;;;0.63;0.60;;;;;;;0.44;78.47;94943.00;5011695;28;20187;-76
2021/01/20 01:34:51;;;;;;;0.87;0.60;;;;;;;0.72;77.55;94940.25;4993678;28;20214;-76
2021/01/20 01:37:16;;;;;;;0.70;0.53;;;;;;;1.11;75.46;94941.03;5011560;28;20187;-77
2021/01/20 01:39:41;;;;;;;0.60;0.60;;;;;;;1.11;75.93;94948.69;5011573;28;20183;-76
2021/01/20 01:42:08;;;;;;;1.07;0.50;;;;;;;1.15;75.69;94942.47;4977795;28;20646;-76
2021/01/20 01:44:33;;;;;;;0.40;0.40;;;;;;;1.29;74.86;94933.81;4993875;28;20317;-76
2021/01/20 01:46:59;;;;;;;0.93;0.53;;;;;;;1.39;74.61;94935.63;4994006;28;20550;-76
2021/01/20 01:49:25;;;;;;;0.60;0.60;;;;;;;1.35;74.74;94939.34;4977773;28;20191;-76
2021/01/20 01:51:51;;;;;;;0.50;0.50;;;;;;;1.34;74.93;94937.72;4993929;28;20268;-76
2021/01/20 01:54:16;;;;;;;0.70;0.70;;;;;;;1.28;74.97;94939.88;4993617;28;20635;-76
2021/01/20 01:56:42;;;;;;;1.17;0.57;;;;;;;1.31;74.46;94934.53;4993832;28;20258;-76
2021/01/20 01:59:08;;;;;;;0.77;0.50;;;;;;;1.48;73.97;94933.34;4993941;28;20655;-75
2021/01/20 02:01:33;;;;;;;0.77;0.60;;;;;;;1.57;73.37;94933.53;4993849;28;20194;-77
2021/01/20 02:03:58;;;;;;;0.40;0.40;;;;;;;1.75;72.47;94936.53;5011095;28;20194;-75
2021/01/20 02:06:24;;;;;;;1.13;0.60;;;;;;;1.79;72.11;94930.28;4993356;28;20242;-76
2021/01/20 02:08:49;;;;;;;0.67;0.50;;;;;;;1.92;71.36;94928.47;4993733;28;20183;-76
2021/01/20 02:11:38;;;;;;;0.70;0.57;;;;;;;1.81;72.23;94930.97;4993775;28;20190;-75
2021/01/20 02:14:21;;;;;;;0.60;0.60;;;;;;;1.78;72.22;94938.06;5000584;28;20810;-76
2021/01/20 02:16:58;;;;;;;0.53;0.50;;;;;;;1.90;71.21;94925.19;4997187;28;20762;-76
2021/01/20 02:19:37;;;;;;;0.50;0.50;;;;;;;1.80;71.70;94928.53;4997182;28;20194;-76
2021/01/20 02:22:27;;;;;;;0.63;0.63;;;;;;;1.85;71.46;94922.13;4997193;28;20179;-75
2021/01/20 02:25:07;;;;;;;1.40;0.63;;;;;;;1.76;71.49;94930.47;4997010;28;20197;-76
2021/01/20 02:27:41;;;;;;;0.67;0.50;;;;;;;1.66;71.95;94939.75;5014738;28;20189;-76
2021/01/20 02:30:11;;;;;;;0.50;0.50;;;;;;;1.57;72.45;94938.66;4997050;28;20222;-75
2021/01/20 02:32:37;;;;;;;0.60;0.60;;;;;;;1.48;73.04;94936.72;4996935;28;20645;-76
2021/01/20 02:35:04;;;;;;;0.97;0.50;;;;;;;1.48;72.85;94939.28;4996440;28;20579;-76
2021/01/20 02:37:32;;;;;;;0.57;0.50;;;;;;;1.33;73.38;94930.97;4996838;28;20183;-75
2021/01/20 02:39:58;;;;;;;0.60;0.60;;;;;;;1.38;72.85;94930.63;4980565;28;20182;-76
2021/01/20 02:42:23;;;;;;;0.70;0.63;;;;;;;1.32;73.54;94923.38;4996848;28;20252;-76
2021/01/20 02:44:49;;;;;;;0.70;0.60;;;;;;;1.39;73.02;94930.53;4996538;28;20187;-76
2021/01/20 02:47:14;;;;;;;0.50;0.50;;;;;;;1.50;72.57;94923.81;4996748;28;20230;-75
2021/01/20 02:49:39;;;;;;;0.77;0.50;;;;;;;1.45;72.41;94924.16;4996560;28;20183;-75
2021/01/20 02:52:30;;;;;;;0.67;0.57;;;;;;;1.62;71.29;94921.25;4996679;28;20172;-77
2021/01/20 02:54:57;;;;;;;1.03;0.73;;;;;;;1.77;70.29;94924.47;4996253;28;20211;-76
2021/01/20 02:57:23;;;;;;;0.80;0.60;;;;;;;1.68;70.64;94925.94;4996612;28;20210;-75
2021/01/20 02:59:51;;;;;;;1.00;0.80;;;;;;;1.80;69.67;94914.00;4996470;28;20589;-75
2021/01/20 03:02:18;;;;;;;0.90;0.60;;;;;;;1.73;70.58;94917.91;4996396;28;20188;-76
2021/01/20 03:04:47;;;;;;;0.77;0.60;;;;;;;1.81;69.09;94918.19;4996043;28;20195;-76
2021/01/20 03:07:13;;;;;;;0.60;0.60;;;;;;;1.90;68.66;94919.25;4996487;28;20179;-76
2021/01/20 03:09:38;;;;;;;1.00;0.60;;;;;;;1.96;68.17;94921.38;4996417;28;20234;-76
2021/01/20 03:12:04;;;;;;;0.60;0.60;;;;;;;1.97;68.31;94921.28;5013807;28;20183;-76
2021/01/20 03:14:31;;;;;;;0.60;0.60;;;;;;;1.84;68.23;94910.25;4995633;28;20305;-76
2021/01/20 03:16:57;;;;;;;1.27;0.60;;;;;;;1.79;68.59;94907.25;4980044;28;20183;-76
2021/01/20 03:19:22;;;;;;;0.80;0.50;;;;;;;1.80;68.64;94914.00;5013479;28;20222;-76
2021/01/20 03:21:48;;;;;;;1.03;0.60;;;;;;;1.75;68.31;94915.22;5013676;28;20622;-76
2021/01/20 03:24:13;;;;;;;0.60;0.60;;;;;;;1.66;68.67;94920.06;4995865;28;20183;-76
2021/01/20 03:26:38;;;;;;;0.50;0.50;;;;;;;1.75;68.03;94900.69;4978338;28;20179;-76
2021/01/20 03:29:03;;;;;;;1.10;0.70;;;;;;;1.76;68.00;94898.94;4979619;28;20179;-75
2021/01/20 03:31:29;;;;;;;0.80;0.63;;;;;;;1.77;67.46;94898.84;4979950;28;20724;-76
2021/01/20 03:33:54;;;;;;;0.73;0.50;;;;;;;1.86;66.96;94898.19;4995871;28;20585;-75
2021/01/20 03:36:20;;;;;;;0.70;0.50;;;;;;;1.87;66.93;94896.44;4995416;28;20610;-76
2021/01/20 03:38:45;;;;;;;0.70;0.70;;;;;;;1.84;66.73;94886.41;4995525;28;20207;-76
2021/01/20 03:41:10;;;;;;;1.10;0.50;;;;;;;1.92;66.36;94890.06;5013234;28;20207;-76
2021/01/20 03:43:35;;;;;;;0.73;0.50;;;;;;;1.91;66.53;94890.16;5012794;28;20717;-75
2021/01/20 03:46:01;;;;;;;1.60;0.60;;;;;;;1.99;66.20;94886.13;4995184;28;20670;-76
2021/01/20 03:48:26;;;;;;;1.07;0.53;;;;;;;1.92;66.07;94884.94;4995541;28;20210;-76
2021/01/20 03:50:51;;;;;;;1.17;0.60;;;;;;;1.97;66.00;94880.31;4979300;28;20861;-75
2021/01/20 03:53:17;;;;;;;0.60;0.60;;;;;;;2.10;65.29;94874.28;4995461;28;20179;-76
2021/01/20 03:55:42;;;;;;;2.30;0.50;;;;;;;2.08;65.39;94871.00;4978830;28;20211;-75
2021/01/20 03:58:08;;;;;;;0.60;0.43;;;;;;;2.25;64.14;94863.72;5012979;28;20182;-76
2021/01/20 04:00:33;;;;;;;1.47;0.80;;;;;;;2.13;64.88;94874.06;4995265;28;20184;-76
2021/01/20 04:02:58;;;;;;;0.70;0.70;;;;;;;2.12;64.74;94874.97;4995121;28;20230;-75
2021/01/20 04:05:24;;;;;;;0.67;0.50;;;;;;;1.98;65.60;94869.13;4978518;28;20305;-76
2021/01/20 04:07:49;;;;;;;0.50;0.50;;;;;;;2.15;64.36;94864.53;5012768;28;20183;-76
2021/01/20 04:10:14;;;;;;;0.67;0.67;;;;;;;2.10;64.59;94864.84;4978868;28;20187;-76
2021/01/20 04:12:39;;;;;;;1.73;0.80;;;;;;;2.07;65.05;94861.69;4995231;28;20179;-76
2021/01/20 04:15:06;;;;;;;1.77;0.80;;;;;;;2.16;64.21;94853.34;5011963;28;20207;-75
2021/01/20 04:17:32;;;;;;;1.10;0.80;;;;;;;2.10;64.06;94857.16;4995069;28;20214;-77
2021/01/20 04:19:57;;;;;;;0.97;0.70;;;;;;;2.30;63.01;94860.81;4994600;28;20662;-76
2021/01/20 04:22:23;;;;;;;0.80;0.60;;;;;;;2.36;62.29;94855.22;5012578;28;20180;-75
2021/01/20 04:24:48;;;;;;;1.10;0.67;;;;;;;2.40;62.36;94858.41;4994598;28;20195;-76
2021/01/20 04:27:13;;;;;;;0.60;0.50;;;;;;;2.29;63.44;94859.16;5012511;28;20179;-76
2021/01/20 04:29:39;;;;;;;0.90;0.60;;;;;;;2.26;63.04;94852.53;4994939;28;20349;-75
2021/01/20 04:32:04;;;;;;;0.90;0.70;;;;;;;2.39;62.11;94844.75;4994779;28;20711;-76
2021/01/20 04:34:29;;;;;;;0.73;0.73;;;;;;;2.37;61.76;94836.34;4994248;28;20262;-76
2021/01/20 04:36:55;;;;;;;0.57;0.50;;;;;;;2.25;62.75;94839.84;4994428;28;20550;-75
2021/01/20 04:39:20;;;;;;;1.07;0.90;;;;;;;2.31;62.01;94841.16;5012293;28;20184;-76
2021/01/20 04:41:45;;;;;;;0.50;0.50;;;;;;;2.46;61.03;94848.47;5012282;28;20182;-75
2021/01/20 04:44:11;;;;;;;0.67;0.50;;;;;;;2.48;61.43;94854.31;4978396;28;20257;-76
2021/01/20 04:46:37;;;;;;;0.97;0.60;;;;;;;2.49;61.17;94845.69;4978004;28;20570;-76
2021/01/20 04:49:02;;;;;;;0.67;0.67;;;;;;;2.49;61.64;94853.38;5012011;28;20171;-77
2021/01/20 04:51:28;;;;;;;0.80;0.80;;;;;;;2.51;61.75;94843.03;4994665;28;20596;-76
2021/01/20 04:53:54;;;;;;;0.93;0.87;;;;;;;2.48;62.46;94844.06;4978345;28;20542;-75
2021/01/20 04:56:20;;;;;;;1.00;0.80;;;;;;;2.50;62.28;94844.75;4994224;28;20756;-75
2021/01/20 04:58:45;;;;;;;1.20;0.93;;;;;;;2.40;62.52;94848.97;4994587;28;20218;-76
2021/01/20 05:01:10;;;;;;;0.53;0.50;;;;;;;2.40;62.66;94845.59;5012051;28;20270;-76
2021/01/20 05:03:40;;;;;;;0.70;0.67;;;;;;;2.39;62.70;94844.75;4994344;28;20270;-75
2021/01/20 05:06:09;;;;;;;1.60;1.10;;;;;;;2.34;62.74;94846.84;4993934;28;20280;-75
2021/01/20 05:08:34;;;;;;;0.80;0.80;;;;;;;2.35;63.25;94845.09;4994471;28;20175;-75
2021/01/20 05:10:59;;;;;;;1.53;0.70;;;;;;;2.24;63.26;94836.47;5011900;28;20635;-76
2021/01/20 05:13:26;;;;;;;0.90;0.77;;;;;;;2.25;63.34;94838.09;4994449;28;20175;-75
2021/01/20 05:15:52;;;;;;;1.03;0.77;;;;;;;2.21;63.82;94830.78;5011428;28;20296;-75
2021/01/20 05:18:18;;;;;;;0.80;0.80;;;;;;;2.12;63.98;94828.88;4977916;28;20658;-76
2021/01/20 05:20:43;;;;;;;3.90;1.10;;;;;;;2.10;64.41;94828.16;4994130;28;20183;-75
2021/01/20 05:23:09;;;;;;;1.83;1.07;;;;;;;2.18;64.25;94831.78;4994226;28;20180;-74
2021/01/20 05:25:43;;;;;;;1.30;0.93;;;;;;;2.16;63.89;94835.41;4977743;28;20204;-75
2021/01/20 05:28:22;;;;;;;1.30;1.07;;;;;;;2.13;64.34;94833.09;4994280;28;20262;-75
2021/01/20 05:30:48;;;;;;;1.60;1.10;;;;;;;2.10;64.21;94828.97;4994415;28;20269;-77
2021/01/20 05:33:18;;;;;;;1.57;1.20;;;;;;;2.06;64.47;94831.91;4994114;28;20698;-75
2021/01/20 05:35:45;;;;;;;2.23;1.30;;;;;;;2.08;64.47;94824.91;4993793;28;20552;-76
2021/01/20 05:38:10;;;;;;;1.70;1.10;;;;;;;1.96;65.12;94827.47;4994135;28;20254;-76
2021/01/20 05:40:36;;;;;;;3.00;1.30;;;;;;;1.92;64.95;94822.66;4994095;28;20203;-76
2021/01/20 05:43:02;;;;;;;2.77;1.53;;;;;;;1.88;65.65;94826.38;4993998;28;20692;-77
2021/01/20 05:45:27;;;;;;;2.27;1.50;;;;;;;1.87;65.42;94817.91;4977400;28;20195;-75
2021/01/20 05:48:09;;;;;;;1.47;1.10;;;;;;;1.93;65.26;94814.88;4994002;28;20203;-75
2021/01/20 05:50:37;;;;;;;0.90;0.80;;;;;;;1.86;65.79;94818.81;4996648;28;20175;-76
2021/01/20 05:53:10;;;;;;;1.20;0.90;;;;;;;1.81;65.97;94826.00;4997718;28;20172;-77
2021/01/20 05:55:37;;;;;;;1.00;0.90;;;;;;;1.92;65.40;94820.91;4997333;28;20211;-75
2021/01/20 05:58:03;;;;;;;0.67;0.67;;;;;;;1.80;66.14;94821.81;4997714;28;20179;-76
2021/01/20 06:00:29;;;;;;;0.80;0.80;;;;;;;1.77;66.27;94824.63;4997589;28;20187;-76
2021/01/20 06:02:56;;;;;;;0.90;0.80;;;;;;;1.80;65.84;94821.00;4997600;28;20179;-77
2021/01/20 06:05:22;;;;;;;1.60;0.80;;;;;;;1.74;66.36;94835.06;4997051;28;20670;-75
2021/01/20 06:07:49;;;;;;;1.00;0.80;;;;;;;1.68;66.68;94828.66;4996138;28;20194;-76
2021/01/20 06:10:14;;;;;;;2.03;0.93;;;;;;;1.70;66.23;94828.56;4978251;28;20662;-77
2021/01/20 06:12:40;;;;;;;0.80;0.80;;;;;;;1.69;66.09;94819.25;4994308;28;20222;-75
2021/01/20 06:15:05;;;;;;;0.90;0.70;;;;;;;1.77;66.32;94818.66;4996006;28;20294;-75
2021/01/20 06:17:35;;;;;;;1.03;0.80;;;;;;;1.75;65.97;94813.66;4997215;28;20200;-75
2021/01/20 06:20:03;;;;;;;0.80;0.80;;;;;;;1.70;66.48;94810.63;4997192;28;20203;-75
2021/01/20 06:22:30;;;;;;;0.70;0.70;;;;;;;1.63;66.87;94804.31;4996821;28;20274;-75
2021/01/20 06:25:10;;;;;;;0.90;0.77;;;;;;;1.66;66.91;94807.47;4996815;28;20195;-76
2021/01/20 06:28:01;;;;;;;2.03;1.00;;;;;;;1.62;67.09;94813.75;4996902;28;20257;-74
2021/01/20 06:30:37;;;;;;;1.00;0.80;;;;;;;1.61;67.56;94813.88;5005104;28;20211;-75
2021/01/20 06:33:13;;;;;;;1.00;0.70;;;;;;;1.49;68.14;94814.72;4977213;28;20176;-74
2021/01/20 06:35:44;;;;;;;0.97;0.80;;;;;;;1.40;68.68;94814.47;4977152;28;20215;-74
2021/01/20 06:38:27;;;;;;;1.00;0.93;;;;;;;1.33;69.27;94818.41;4961124;28;20215;-75
2021/01/20 06:41:10;;;;;;;1.07;0.83;;;;;;;1.33;69.25;94809.91;4994766;28;20183;-74
2021/01/20 06:43:44;;;;;;;1.20;1.00;;;;;;;1.33;69.37;94817.59;4977191;28;20599;-76
2021/01/20 06:46:12;;;;;;;0.80;0.80;;;;;;;1.25;69.87;94819.88;4983127;28;20195;-74
2021/01/20 06:48:56;;;;;;;2.13;1.10;;;;;;;1.25;69.77;94815.59;5014006;28;20183;-74
2021/01/20 06:51:22;;;;;;;3.17;1.97;;;;;;;1.28;69.74;94819.66;4996863;28;20803;-74
2021/01/20 06:54:04;;;;;;;3.07;1.67;;;;;;;1.26;69.85;94818.94;4996228;28;20183;-75
2021/01/20 06:56:30;;;;;;;1.10;1.00;;;;;;;1.14;70.95;94824.00;4995321;28;20273;-75
2021/01/20 06:59:14;;;;;;;1.20;1.07;;;;;;;1.12;70.59;94820.72;5013833;28;20178;-75
2021/01/20 07:01:39;;;;;;;2.53;1.00;;;;;;;1.05;71.39;94816.97;5013710;28;20589;-75
2021/01/20 07:04:04;;;;;;;1.43;1.13;;;;;;;1.05;71.05;94816.97;4979692;28;20187;-74
2021/01/20 07:06:32;;;;;;;1.17;0.93;;;;;;;1.04;71.77;94819.63;4963876;28;20208;-75
2021/01/20 07:08:58;;;;;;;1.57;1.20;;;;;;;1.05;71.78;94823.81;5001227;28;20188;-76
2021/01/20 07:11:23;;;;;;;1.23;1.00;;;;;;;1.00;71.64;94811.38;4984131;28;20635;-75
2021/01/20 07:13:48;;;;;;;1.17;0.97;;;;;;;0.91;71.90;94813.75;5013469;28;20215;-75
2021/01/20 07:16:16;;;;;;;1.30;1.20;;;;;;;0.95;72.08;94805.75;4979226;28;20282;-75
2021/01/20 07:18:44;;;;;;;3.20;1.20;;;;;;;0.90;72.10;94802.72;4977400;28;20195;-76
2021/01/20 07:21:09;;;;;;;1.53;1.20;;;;;;;0.94;71.93;94800.75;4989250;28;20665;-75
2021/01/20 07:23:35;;;;;;;2.70;1.00;;;;;;;0.95;72.03;94802.38;4978207;28;20184;-75
2021/01/20 07:26:03;;;;;;;2.67;1.07;;;;;;;0.92;72.34;94793.19;4980246;28;20512;-76
2021/01/20 07:28:28;;;;;;;1.30;1.10;;;;;;;1.01;71.93;94791.75;4990001;28;20211;-75
2021/01/20 07:31:11;;;;;;;2.87;1.80;;;;;;;0.96;72.13;94798.91;4993873;28;20455;-75
2021/01/20 07:33:55;;;;;;;1.47;1.10;;;;;;;0.92;72.49;94794.94;5007230;28;20550;-75
2021/01/20 07:36:21;;;;;;;1.67;1.30;;;;;;;0.93;72.28;94789.72;4982226;28;20207;-75
2021/01/20 07:38:48;;;;;;;0.90;0.90;;;;;;;0.98;71.95;94785.09;4984601;28;20184;-74
2021/01/20 07:41:21;;;;;;;1.70;1.27;;;;;;;1.00;72.03;94790.94;4985298;28;20206;-75
2021/01/20 07:43:47;;;;;;;1.23;1.07;;;;;;;1.00;72.33;94801.16;4974530;28;20183;-74
2021/01/20 07:46:14;;;;;;;1.50;1.20;;;;;;;1.15;71.59;94791.59;4990055;28;20210;-75
2021/01/20 07:48:39;;;;;;;1.87;0.90;;;;;;;1.23;71.23;94786.72;4983516;28;20183;-74
2021/01/20 07:51:04;;;;;;;1.70;1.30;;;;;;;1.22;71.36;94790.19;4993726;28;20606;-74
2021/01/20 07:53:30;;;;;;;1.03;1.00;;;;;;;1.27;71.44;94782.22;4987282;28;20188;-74
2021/01/20 07:55:55;;;;;;;1.40;1.17;;;;;;;1.37;71.04;94785.75;4986964;28;20215;-74
2021/01/20 07:58:25;;;;;;;1.53;0.90;;;;;;;1.41;70.76;94777.75;4986695;28;20199;-74
2021/01/20 08:00:51;;;;;;;1.23;1.07;;;;;;;1.38;71.19;94785.63;4971434;28;20180;-74
2021/01/20 08:03:29;;;;;;;1.40;1.20;;;;;;;1.39;71.33;94782.13;4992464;28;20192;-74
2021/01/20 08:05:55;;;;;;;1.87;1.20;;;;;;;1.36;71.09;94782.38;5007301;28;20214;-74
2021/01/20 08:08:20;;;;;;;2.37;1.20;;;;;;;1.35;71.21;94782.47;4991047;28;20183;-74
2021/01/20 08:10:45;;;;;;;2.73;1.23;;;;;;;1.44;70.90;94778.44;4991306;28;20191;-74
2021/01/20 08:13:14;;;;;;;8.73;5.10;;;;;;;1.45;71.25;94770.66;5011465;28;20197;-74
2021/01/20 08:15:40;;;;;;;3.63;1.63;;;;;;;1.44;70.95;94768.22;4984916;28;20564;-75
2021/01/20 08:18:12;;;;;;;2.03;1.67;;;;;;;1.42;71.39;94768.31;4959268;28;20214;-75
2021/01/20 08:20:38;;;;;;;1.43;1.33;;;;;;;1.42;71.54;94779.38;4995654;28;20191;-75
2021/01/20 08:23:11;;;;;;;1.80;1.10;;;;;;;1.37;71.45;94768.66;4969204;28;20183;-74
2021/01/20 08:25:37;;;;;;;1.20;1.10;;;;;;;1.39;71.41;94768.53;4988872;28;20208;-75
2021/01/20 08:28:14;;;;;;;2.17;1.40;;;;;;;1.45;71.69;94770.66;4987015;28;20183;-75
2021/01/20 08:30:40;;;;;;;1.70;1.37;;;;;;;1.39;71.30;94771.09;4991831;28;20186;-75
2021/01/20 08:33:05;;;;;;;2.00;1.30;;;;;;;1.39;71.77;94769.34;4987663;28;20690;-75
2021/01/20 08:35:38;;;;;;;1.73;1.30;;;;;;;1.38;72.01;94762.59;4982317;28;20666;-74
2021/01/20 08:38:04;;;;;;;2.10;1.40;;;;;;;1.42;71.76;94761.47;4958752;28;20183;-74
2021/01/20 08:40:30;;;;;;;2.07;1.47;;;;;;;1.53;71.32;94764.97;4986481;28;20183;-75
2021/01/20 08:42:56;;;;;;;2.37;1.60;;;;;;;1.53;71.55;94762.41;4992486;28;20179;-76
2021/01/20 08:45:21;;;;;;;3.30;1.67;;;;;;;1.51;71.36;94759.97;4992274;28;20213;-74
2021/01/20 08:47:53;;;;;;;1.57;1.47;;;;;;;1.55;71.49;94756.25;5011344;28;20198;-73
2021/01/20 08:50:29;;;;;;;2.60;1.87;;;;;;;1.47;71.39;94756.00;5005004;28;20188;-76
2021/01/20 08:52:57;;;;;;;3.50;1.47;;;;;;;1.54;71.45;94761.50;5008147;28;20175;-74
2021/01/20 08:55:32;;;;;;;3.90;1.97;;;;;;;1.51;71.27;94747.19;4993458;28;20215;-74
2021/01/20 08:58:25;;;;;;;1.90;1.47;;;;;;;1.56;71.15;94754.50;4965681;28;20532;-74
2021/01/20 09:00:55;;;;;;;3.30;2.93;;;;;;;1.59;70.96;94749.16;4989435;28;20176;-73
2021/01/20 09:03:22;;;;;;;2.23;1.70;;;;;;;1.55;71.58;94752.88;4980424;28;20190;-75
2021/01/20 09:05:49;;;;;;;1.97;1.60;;;;;;;1.61;71.17;94750.69;4982296;28;20214;-74
2021/01/20 09:08:15;;;;;;;3.10;1.80;;;;;;;1.53;72.06;94747.06;5010914;28;20186;-74
2021/01/20 09:10:42;;;;;;;2.77;1.80;;;;;;;1.61;71.20;94753.25;4985239;28;20186;-75
2021/01/20 09:13:07;;;;;;;2.63;1.73;;;;;;;1.65;71.43;94754.66;4986405;28;20186;-74
2021/01/20 09:15:33;;;;;;;3.53;1.80;;;;;;;1.63;71.53;94748.84;4985844;28;20647;-75
2021/01/20 09:17:58;;;;;;;2.80;2.10;;;;;;;1.57;71.79;94751.84;4977714;28;20218;-74
2021/01/20 09:20:24;;;;;;;1.77;1.53;;;;;;;1.73;71.18;94748.16;4993452;28;20191;-75
2021/01/20 09:22:49;;;;;;;2.63;1.80;;;;;;;1.70;71.30;94744.91;4976189;28;20690;-75
2021/01/20 09:25:15;;;;;;;3.50;1.87;;;;;;;1.80;70.73;94742.47;4966730;28;20200;-76
2021/01/20 09:27:40;;;;;;;2.23;1.60;;;;;;;1.77;70.93;94745.28;4976543;28;20184;-75
2021/01/20 09:30:07;;;;;;;2.03;1.73;;;;;;;1.88;70.74;94747.03;4977021;28;20406;-76
2021/01/20 09:32:36;;;;;;;3.07;2.00;;;;;;;1.94;70.60;94736.31;4979473;28;20221;-74
2021/01/20 09:35:10;;;;;;;2.30;1.93;;;;;;;2.11;70.01;94737.59;4971777;28;20675;-75
2021/01/20 09:37:35;;;;;;;2.07;1.77;;;;;;;2.16;69.84;94735.50;4994156;28;20179;-75
2021/01/20 09:40:02;;;;;;;2.03;1.47;;;;;;;2.23;69.70;94736.69;5005851;28;20194;-74
2021/01/20 09:42:27;;;;;;;1.70;1.57;;;;;;;2.17;69.58;94727.72;4971822;28;20184;-74
2021/01/20 09:44:53;;;;;;;3.07;1.93;;;;;;;2.25;69.61;94727.13;4988369;28;20206;-74
2021/01/20 09:47:18;;;;;;;3.07;1.90;;;;;;;2.26;69.56;94728.75;4988337;28;20635;-75
2021/01/20 09:49:45;;;;;;;4.30;2.10;;;;;;;2.27;68.97;94728.63;5009322;28;20184;-76
2021/01/20 09:52:14;;;;;;;2.93;2.10;;;;;;;2.31;69.59;94721.53;5001003;28;20198;-76
2021/01/20 09:54:40;;;;;;;3.50;2.23;;;;;;;2.28;69.48;94727.69;5003951;28;20671;-74
2021/01/20 09:57:05;;;;;;;3.67;2.70;;;;;;;2.42;69.58;94726.66;4990072;28;20180;-74
2021/01/20 09:59:30;;;;;;;3.53;2.43;;;;;;;2.37;69.23;94721.06;5011376;28;20187;-75
2021/01/20 10:01:56;;;;;;;3.60;2.50;;;;;;;2.35;69.26;94715.25;5013811;28;20587;-74
2021/01/20 10:04:21;;;;;;;3.87;2.40;;;;;;;2.46;69.35;94712.66;4989505;28;20598;-74
2021/01/20 10:06:46;;;;;;;4.33;2.60;;;;;;;2.47;69.21;94723.72;4996117;28;20682;-75
2021/01/20 10:09:11;;;;;;;3.00;2.10;;;;;;;2.58;68.29;94710.91;4963939;28;20184;-74
2021/01/20 10:11:37;;;;;;;3.50;2.07;;;;;;;2.50;68.90;94711.50;4982482;28;20263;-74
2021/01/20 10:14:02;;;;;;;3.87;2.37;;;;;;;2.69;67.95;94712.63;4982051;28;20273;-74
2021/01/20 10:16:27;;;;;;;3.20;2.60;;;;;;;2.72;68.00;94714.94;4978627;28;20222;-75
2021/01/20 10:18:53;;;;;;;3.30;2.23;;;;;;;2.68;67.50;94709.25;4985422;28;20187;-75
2021/01/20 10:21:18;;;;;;;3.27;2.17;;;;;;;2.65;67.73;94711.22;4981940;28;20550;-75
2021/01/20 10:23:43;;;;;;;3.63;2.40;;;;;;;2.73;67.52;94703.75;5004022;28;20195;-75
2021/01/20 10:26:09;;;;;;;3.43;1.93;;;;;;;2.75;66.74;94692.44;4996717;28;20230;-78
2021/01/20 10:28:34;;;;;;;4.80;2.30;;;;;;;2.80;66.62;94686.94;4973569;28;20199;-75
2021/01/20 10:30:59;;;;;;;3.77;2.60;;;;;;;2.82;66.83;94688.44;5013783;28;20224;-75
2021/01/20 10:33:24;;;;;;;3.43;2.30;;;;;;;2.84;67.03;94690.91;4987957;28;20651;-75
2021/01/20 10:35:50;;;;;;;3.37;2.40;;;;;;;2.94;66.67;94681.53;4968233;28;20223;-75
2021/01/20 10:38:15;;;;;;;3.30;2.60;;;;;;;2.82;67.28;94675.63;4978437;28;20220;-74
2021/01/20 10:40:40;;;;;;;3.10;2.40;;;;;;;2.84;67.10;94660.97;4986557;28;20194;-77
2021/01/20 10:43:06;;;;;;;5.93;2.77;;;;;;;2.82;66.61;94662.00;5013364;28;20198;-75
2021/01/20 10:45:31;;;;;;;3.37;2.73;;;;;;;2.87;66.79;94644.50;4971092;28;20646;-75
2021/01/20 10:47:56;;;;;;;4.57;3.03;;;;;;;2.82;65.77;94647.41;4981401;28;20550;-74
2021/01/20 10:50:22;;;;;;;4.13;2.80;;;;;;;2.75;66.53;94648.06;5013848;28;20213;-76
2021/01/20 10:52:47;;;;;;;5.47;3.43;;;;;;;2.62;66.46;94644.81;5002909;28;20196;-75
2021/01/20 10:55:12;;;;;;;7.83;3.73;;;;;;;2.42;67.10;94634.41;4962196;28;20300;-75
2021/01/20 10:57:38;;;;;;;5.60;3.87;;;;;;;2.47;66.83;94636.59;4983811;28;20184;-75
2021/01/20 11:00:04;;;;;;;4.43;3.37;;;;;;;2.42;66.35;94636.16;4974465;28;20197;-75
2021/01/20 11:02:29;;;;;;;5.03;3.80;;;;;;;2.48;66.20;94633.94;4989359;28;20555;-74
2021/01/20 11:04:54;;;;;;;5.90;3.77;;;;;;;2.45;66.10;94631.59;4997870;28;20199;-73
2021/01/20 11:07:19;;;;;;;5.13;4.17;;;;;;;2.42;66.50;94618.22;5011951;28;20184;-74
2021/01/20 11:09:47;;;;;;;6.07;4.10;;;;;;;2.46;66.47;94615.28;4986870;28;20239;-76
2021/01/20 11:12:12;;;;;;;5.43;3.90;;;;;;;2.39;66.31;94616.72;4981719;28;20561;-74
2021/01/20 11:14:37;;;;;;;6.87;4.30;;;;;;;2.34;67.11;94608.56;4995669;28;20208;-74
2021/01/20 11:17:03;;;;;;;5.77;3.53;;;;;;;2.31;67.69;94596.00;5012957;28;20195;-74
2021/01/20 11:19:28;;;;;;;7.03;4.00;;;;;;;2.46;66.66;94584.53;5011870;28;20187;-74
2021/01/20 11:21:53;;;;;;;5.63;3.37;;;;;;;2.44;66.89;94580.47;4995799;28;20188;-74
2021/01/20 11:24:19;;;;;;;3.87;3.00;;;;;;;2.36;66.67;94582.81;4980338;28;20188;-74
2021/01/20 11:26:47;;;;;;;4.03;3.13;;;;;;;2.33;66.96;94590.75;4979154;28;20194;-74
2021/01/20 11:29:14;;;;;;;6.40;4.27;;;;;;;2.34;67.07;94579.56;4989390;28;20184;-74
2021/01/20 11:31:39;;;;;;;4.80;3.57;;;;;;;2.41;67.47;94583.28;4986789;28;20178;-73
2021/01/20 11:34:04;;;;;;;4.87;3.00;;;;;;;2.31;67.33;94579.81;5002905;28;20558;-74
2021/01/20 11:36:30;;;;;;;5.80;3.43;;;;;;;2.25;67.96;94579.34;4987234;28;20229;-73
2021/01/20 11:38:55;;;;;;;5.73;3.37;;;;;;;2.26;68.04;94570.72;4988631;28;20209;-73
2021/01/20 11:41:21;;;;;;;4.57;3.50;;;;;;;2.33;68.12;94575.38;4993469;28;20192;-73